createdAt,value
2019-03-16T00:04:01.161Z,100627.66
2019-03-16T00:08:55.024Z,100633.80
2019-03-16T00:13:48.889Z,100625.02
2019-03-16T00:18:43.055Z,100630.91
2019-03-16T00:23:36.988Z,100637.55
2019-03-16T00:28:30.841Z,100648.17
2019-03-16T00:33:24.736Z,100653.93
2019-03-16T00:38:18.595Z,100655.64
2019-03-16T00:43:12.441Z,100676.69
2019-03-16T00:48:06.292Z,100677.52
2019-03-16T00:53:00.318Z,100676.69
2019-03-16T00:57:54.177Z,100674.14
2019-03-16T01:02:48.052Z,100684.36
2019-03-16T01:07:42.182Z,100687.45
2019-03-16T01:12:36.347Z,100692.63
2019-03-16T01:17:30.269Z,100694.30
2019-03-16T01:22:24.248Z,100702.34
2019-03-16T01:27:18.142Z,100701.97
2019-03-16T01:32:12.113Z,100708.56
2019-03-16T01:37:06.373Z,100710.45
2019-03-16T01:42:00.228Z,100711.59
2019-03-16T01:46:54.403Z,100708.77
2019-03-16T01:51:48.254Z,100724.28
2019-03-16T01:56:42.105Z,100718.25
2019-03-16T02:01:36.093Z,100718.37
2019-03-16T02:06:29.964Z,100710.26
2019-03-16T02:11:23.895Z,100711.13
2019-03-16T02:16:17.755Z,100714.73
2019-03-16T02:21:11.654Z,100711.58
2019-03-16T02:26:05.493Z,100707.13
2019-03-16T02:30:59.364Z,100703.12
2019-03-16T02:35:53.241Z,100690.16
2019-03-16T02:40:47.088Z,100688.80
2019-03-16T02:45:40.965Z,100682.19
2019-03-16T02:50:34.859Z,100683.52
2019-03-16T02:55:28.760Z,100683.52
2019-03-16T03:00:22.746Z,100666.31
2019-03-16T03:05:16.579Z,100663.80
2019-03-16T03:10:12.726Z,100671.96
2019-03-16T03:15:07.573Z,100665.25
2019-03-16T03:20:01.430Z,100667.41
2019-03-16T03:24:55.338Z,100679.90
2019-03-16T03:29:49.158Z,100688.06
2019-03-16T03:34:43.004Z,100685.06
2019-03-16T03:39:36.869Z,100667.48
2019-03-16T03:44:30.732Z,100648.94
2019-03-16T03:49:24.567Z,100660.97
2019-03-16T03:54:18.445Z,100666.71
2019-03-16T03:59:12.378Z,100669.39
2019-03-16T04:04:14.964Z,100667.23
2019-03-16T04:09:03.717Z,100662.77
2019-03-16T04:13:57.594Z,100654.38
2019-03-16T04:18:52.115Z,100667.00
2019-03-16T04:23:46.034Z,100661.13
2019-03-16T04:28:39.893Z,100677.25
2019-03-16T04:33:33.733Z,100671.03
2019-03-16T04:38:27.598Z,100654.36
2019-03-16T04:43:21.555Z,100649.81
2019-03-16T04:48:15.438Z,100648.66
2019-03-16T04:53:09.275Z,100650.84
2019-03-16T04:58:03.145Z,100648.91
2019-03-16T05:02:56.996Z,100655.10
2019-03-16T05:07:50.850Z,100655.07
2019-03-16T05:12:44.693Z,100655.55
2019-03-16T05:17:38.533Z,100651.42
2019-03-16T05:22:32.394Z,100649.17
2019-03-16T05:27:26.286Z,100645.81
2019-03-16T05:32:20.136Z,100649.81
2019-03-16T05:37:13.986Z,100638.78
2019-03-16T05:42:07.829Z,100638.56
2019-03-16T05:47:01.729Z,100636.42
2019-03-16T05:51:55.593Z,100636.04
2019-03-16T05:56:49.478Z,100620.05
2019-03-16T06:01:43.313Z,100631.23
2019-03-16T06:06:37.169Z,100628.49
2019-03-16T06:11:31.012Z,100630.91
2019-03-16T06:16:24.959Z,100631.03
2019-03-16T06:21:18.789Z,100627.67
2019-03-16T06:26:12.688Z,100628.54
2019-03-16T06:31:06.621Z,100628.54
2019-03-16T06:36:00.480Z,100627.37
2019-03-16T06:40:54.360Z,100625.18
2019-03-16T06:45:48.217Z,100626.89
2019-03-16T06:50:42.069Z,100635.99
2019-03-16T06:55:35.936Z,100631.70
2019-03-16T07:00:29.901Z,100631.70
2019-03-16T07:05:37.260Z,100629.55
2019-03-16T07:10:19.508Z,100631.66
2019-03-16T07:15:14.457Z,100622.55
2019-03-16T07:20:10.916Z,100623.47
2019-03-16T07:25:05.532Z,100610.20
2019-03-16T07:29:59.398Z,100602.77
2019-03-16T07:34:53.240Z,100613.37
2019-03-16T07:39:47.297Z,100608.99
2019-03-16T07:44:41.145Z,100606.58
2019-03-16T07:49:35.019Z,100602.31
2019-03-16T07:54:31.251Z,100598.52
2019-03-16T07:59:24.691Z,100609.57
2019-03-16T08:04:18.556Z,100610.11
2019-03-16T08:09:12.444Z,100620.61
2019-03-16T08:14:06.266Z,100601.89
2019-03-16T08:19:00.124Z,100620.37
2019-03-16T08:23:54.023Z,100618.41
2019-03-16T08:28:47.982Z,100619.48
2019-03-16T08:33:41.833Z,100627.41
2019-03-16T08:38:35.749Z,100635.11
2019-03-16T08:43:29.637Z,100640.23
2019-03-16T08:48:23.650Z,100635.14
2019-03-16T08:53:17.587Z,100627.90
2019-03-16T08:58:11.537Z,100633.03
2019-03-16T09:03:05.542Z,100636.82
2019-03-16T09:07:59.425Z,100627.37
2019-03-16T09:12:55.187Z,100626.27
2019-03-16T09:17:49.050Z,100609.23
2019-03-16T09:22:43.041Z,100605.20
2019-03-16T09:27:36.992Z,100597.01
2019-03-16T09:32:30.853Z,100584.44
2019-03-16T09:37:24.826Z,100577.36
2019-03-16T09:42:18.695Z,100560.39
2019-03-16T09:47:12.678Z,100570.83
2019-03-16T09:52:06.583Z,100574.23
2019-03-16T09:57:01.839Z,100578.31
2019-03-16T10:01:55.934Z,100587.74
2019-03-16T10:06:49.787Z,100569.88
2019-03-16T10:11:43.713Z,100568.99
2019-03-16T10:16:37.667Z,100563.16
2019-03-16T10:21:31.540Z,100564.00
2019-03-16T10:26:25.572Z,100543.68
2019-03-16T10:31:19.450Z,100533.52
2019-03-16T10:36:13.289Z,100540.09
2019-03-16T10:41:07.183Z,100544.75
2019-03-16T10:46:01.045Z,100536.69
2019-03-16T10:50:54.936Z,100538.41
2019-03-16T10:55:48.809Z,100524.48
2019-03-16T11:00:42.692Z,100527.22
2019-03-16T11:05:36.570Z,100516.20
2019-03-16T11:10:30.466Z,100528.89
2019-03-16T11:15:24.388Z,100525.89
2019-03-16T11:20:18.416Z,100516.03
2019-03-16T11:25:15.012Z,100510.89
2019-03-16T11:30:13.554Z,100525.94
2019-03-16T11:35:09.123Z,100523.77
2019-03-16T11:40:06.817Z,100520.69
2019-03-16T11:45:00.696Z,100507.87
2019-03-16T11:49:54.601Z,100505.74
2019-03-16T11:54:48.525Z,100520.14
2019-03-16T11:59:42.406Z,100525.84
2019-03-16T12:04:36.302Z,100535.06
2019-03-16T12:09:30.176Z,100500.96
2019-03-16T12:14:24.037Z,100508.63
2019-03-16T12:19:17.940Z,100503.38
2019-03-16T12:24:11.981Z,100516.65
2019-03-16T12:29:05.846Z,100506.20
2019-03-16T12:33:59.724Z,100512.36
2019-03-16T12:38:53.698Z,100508.64
2019-03-16T12:43:47.583Z,100506.72
2019-03-16T12:48:41.459Z,100500.58
2019-03-16T12:53:35.451Z,100485.92
2019-03-16T12:58:29.463Z,100490.29
2019-03-16T13:03:23.326Z,100492.86
2019-03-16T13:08:17.234Z,100500.91
2019-03-16T13:13:11.250Z,100459.11
2019-03-16T13:18:05.180Z,100466.33
2019-03-16T13:22:59.345Z,100466.83
2019-03-16T13:27:53.227Z,100456.31
2019-03-16T13:32:47.227Z,100449.38
2019-03-16T13:37:41.305Z,100449.58
2019-03-16T13:42:35.299Z,100436.20
2019-03-16T13:47:29.184Z,100434.88
2019-03-16T13:52:23.133Z,100434.55
2019-03-16T13:57:16.978Z,100425.15
2019-03-16T14:02:10.863Z,100416.48
2019-03-16T14:07:05.310Z,100416.48
2019-03-16T14:11:59.288Z,100419.78
2019-03-16T14:16:53.150Z,100415.16
2019-03-16T14:21:47.017Z,100403.86
2019-03-16T14:26:42.672Z,100412.12
2019-03-16T14:31:36.692Z,100395.09
2019-03-16T14:36:30.592Z,100404.25
2019-03-16T14:41:24.493Z,100394.30
2019-03-16T14:46:18.881Z,100388.60
2019-03-16T14:51:12.764Z,100380.64
2019-03-16T14:56:06.656Z,100383.61
2019-03-16T15:01:00.883Z,100372.39
2019-03-16T15:05:54.830Z,100365.09
2019-03-16T15:10:48.968Z,100375.52
2019-03-16T15:15:42.937Z,100372.50
2019-03-16T15:20:36.813Z,100363.94
2019-03-16T15:25:30.885Z,100353.22
2019-03-16T15:30:24.735Z,100339.17
2019-03-16T15:35:18.618Z,100336.50
2019-03-16T15:40:13.694Z,100320.66
2019-03-16T15:45:28.627Z,100334.61
2019-03-16T15:50:22.513Z,100320.95
2019-03-16T15:55:16.612Z,100317.32
2019-03-16T16:00:15.081Z,100307.90
2019-03-16T16:05:09.441Z,100295.08
2019-03-16T16:10:08.712Z,100281.63
2019-03-16T16:15:05.492Z,100280.76
2019-03-16T16:19:59.576Z,100266.98
2019-03-16T16:24:53.617Z,100256.48
2019-03-16T16:29:47.495Z,100255.78
2019-03-16T16:34:41.530Z,100254.41
2019-03-16T16:39:35.436Z,100241.04
2019-03-16T16:44:29.537Z,100236.71
2019-03-16T16:49:23.417Z,100250.86
2019-03-16T16:54:17.422Z,100241.98
2019-03-16T16:59:11.296Z,100252.15
2019-03-16T17:04:05.297Z,100244.80
2019-03-16T17:08:59.165Z,100255.28
2019-03-16T17:13:53.136Z,100240.41
2019-03-16T17:18:47.127Z,100240.73
2019-03-16T17:23:41.044Z,100245.35
2019-03-16T17:28:35.167Z,100224.53
2019-03-16T17:33:29.148Z,100229.56
2019-03-16T17:38:23.021Z,100218.59
2019-03-16T17:43:17.036Z,100221.19
2019-03-16T17:48:11.068Z,100207.84
2019-03-16T17:53:04.971Z,100206.72
2019-03-16T17:57:58.822Z,100193.48
2019-03-16T18:02:52.880Z,100184.38
2019-03-16T18:07:46.719Z,100172.58
2019-03-16T18:12:40.588Z,100177.07
2019-03-16T18:17:34.485Z,100179.86
2019-03-16T18:22:28.377Z,100179.78
2019-03-16T18:27:22.278Z,100183.02
2019-03-16T18:32:16.306Z,100188.75
2019-03-16T18:37:10.274Z,100188.25
2019-03-16T18:42:04.222Z,100180.53
2019-03-16T18:46:58.204Z,100176.05
2019-03-16T18:51:52.114Z,100167.08
2019-03-16T18:56:46.114Z,100170.73
2019-03-16T19:01:40.018Z,100173.67
2019-03-16T19:06:33.896Z,100177.01
2019-03-16T19:11:27.928Z,100172.14
2019-03-16T19:16:21.801Z,100163.67
2019-03-16T19:21:15.684Z,100161.30
2019-03-16T19:26:09.705Z,100155.29
2019-03-16T19:31:03.816Z,100155.58
2019-03-16T19:35:57.780Z,100142.92
2019-03-16T19:40:51.784Z,100145.78
2019-03-16T19:45:45.645Z,100131.80
2019-03-16T19:50:39.509Z,100133.42
2019-03-16T19:55:33.498Z,100137.06
2019-03-16T20:00:27.365Z,100127.56
2019-03-16T20:05:21.981Z,100134.00
2019-03-16T20:10:19.899Z,100124.63
2019-03-16T20:15:14.413Z,100114.63
2019-03-16T20:20:09.986Z,100109.55
2019-03-16T20:25:04.324Z,100096.81
2019-03-16T20:29:58.423Z,100102.70
2019-03-16T20:34:52.340Z,100084.81
2019-03-16T20:39:46.340Z,100083.28
2019-03-16T20:44:40.364Z,100073.16
2019-03-16T20:49:34.382Z,100078.05
2019-03-16T20:54:28.392Z,100058.47
2019-03-16T20:59:22.310Z,100058.47
2019-03-16T21:04:16.213Z,100060.63
2019-03-16T21:09:10.156Z,100050.43
2019-03-16T21:14:04.253Z,100041.27
2019-03-16T21:20:26.413Z,100035.47
2019-03-16T21:25:20.569Z,100037.49
2019-03-16T21:30:15.955Z,100024.46
2019-03-16T21:35:09.995Z,100018.03
2019-03-16T21:40:09.540Z,100016.00
2019-03-16T21:45:06.116Z,100013.84
2019-03-16T21:50:00.359Z,100005.23
2019-03-16T21:54:54.629Z,100005.02
2019-03-16T21:59:48.758Z,99998.83
2019-03-16T22:04:42.650Z,99987.85
2019-03-16T22:09:36.753Z,99978.56
2019-03-16T22:14:30.623Z,99968.99
2019-03-16T22:19:24.639Z,99958.38
2019-03-16T22:24:18.548Z,99955.80
2019-03-16T22:29:12.479Z,99941.91
2019-03-16T22:34:06.444Z,99937.93
2019-03-16T22:39:00.323Z,99938.05
2019-03-16T22:43:54.269Z,99924.42
2019-03-16T22:48:48.239Z,99912.64
2019-03-16T22:53:42.099Z,99913.05
2019-03-16T22:58:36.097Z,99897.79
2019-03-16T23:03:30.046Z,99888.64
2019-03-16T23:08:23.931Z,99892.85
2019-03-16T23:13:17.910Z,99894.15
2019-03-16T23:21:32.835Z,99872.67
2019-03-16T23:26:38.043Z,99865.66
2019-03-16T23:31:22.591Z,99861.64
2019-03-16T23:36:16.457Z,99850.13
2019-03-16T23:41:10.462Z,99849.91
2019-03-16T23:46:04.324Z,99842.63
2019-03-16T23:50:58.313Z,99838.01
2019-03-16T23:55:52.241Z,99834.02
